sensor_id;sensor_type;location;lat;lon;timestamp;P1;P2;P0
55754;PMS5003;41674;52.290;-1.474;2022-10-26T00:00:29;5;5;
55754;PMS5003;41674;52.290;-1.474;2022-10-26T00:02:58;8;5;
55754;PMS5003;41674;52.290;-1.474;2022-10-26T00:05:31;4;4;
55754;PMS5003;41674;52.290;-1.474;2022-10-26T00:07:57;8;8;
55754;PMS5003;41674;52.290;-1.474;2022-10-26T00:10:27;6;6;
55754;PMS5003;41674;52.290;-1.474;2022-10-26T00:12:56;4;4;
55754;PMS5003;41674;52.290;-1.474;2022-10-26T00:15:26;6;4;
55754;PMS5003;41674;52.290;-1.474;2022-10-26T00:17:56;9;6;
55754;PMS5003;41674;52.290;-1.474;2022-10-26T00:20:25;5;5;
55754;PMS5003;41674;52.290;-1.474;2022-10-26T00:22:55;4;4;
55754;PMS5003;41674;52.290;-1.474;2022-10-26T00:25:24;4;4;
55754;PMS5003;41674;52.290;-1.474;2022-10-26T00:27:54;4;4;
55754;PMS5003;41674;52.290;-1.474;2022-10-26T00:30:23;6;4;
55754;PMS5003;41674;52.290;-1.474;2022-10-26T00:32:53;5;5;
55754;PMS5003;41674;52.290;-1.474;2022-10-26T00:35:22;5;5;
55754;PMS5003;41674;52.290;-1.474;2022-10-26T00:37:53;3;3;
55754;PMS5003;41674;52.290;-1.474;2022-10-26T00:40:23;8;5;
55754;PMS5003;41674;52.290;-1.474;2022-10-26T00:42:51;5;5;
55754;PMS5003;41674;52.290;-1.474;2022-10-26T00:45:22;6;4;
55754;PMS5003;41674;52.290;-1.474;2022-10-26T00:47:51;3;3;
55754;PMS5003;41674;52.290;-1.474;2022-10-26T00:50:21;6;4;
55754;PMS5003;41674;52.290;-1.474;2022-10-26T00:52:49;9;4;
55754;PMS5003;41674;52.290;-1.474;2022-10-26T00:55:19;5;3;
55754;PMS5003;41674;52.290;-1.474;2022-10-26T00:57:48;4;4;
55754;PMS5003;41674;52.290;-1.474;2022-10-26T01:00:18;4;2;
55754;PMS5003;41674;52.290;-1.474;2022-10-26T01:02:47;4;3;
55754;PMS5003;41674;52.290;-1.474;2022-10-26T01:05:17;4;4;
55754;PMS5003;41674;52.290;-1.474;2022-10-26T01:07:47;6;5;
55754;PMS5003;41674;52.290;-1.474;2022-10-26T01:10:16;3;3;
55754;PMS5003;41674;52.290;-1.474;2022-10-26T01:12:46;5;4;
55754;PMS5003;41674;52.290;-1.474;2022-10-26T01:15:15;7;5;
55754;PMS5003;41674;52.290;-1.474;2022-10-26T01:17:49;5;5;
55754;PMS5003;41674;52.290;-1.474;2022-10-26T01:20:21;4;4;
55754;PMS5003;41674;52.290;-1.474;2022-10-26T01:22:45;4;4;
55754;PMS5003;41674;52.290;-1.474;2022-10-26T01:25:15;6;5;
55754;PMS5003;41674;52.290;-1.474;2022-10-26T01:27:43;5;3;
55754;PMS5003;41674;52.290;-1.474;2022-10-26T01:30:17;3;3;
55754;PMS5003;41674;52.290;-1.474;2022-10-26T01:32:44;4;3;
55754;PMS5003;41674;52.290;-1.474;2022-10-26T01:35:12;4;4;
55754;PMS5003;41674;52.290;-1.474;2022-10-26T01:37:42;4;3;
55754;PMS5003;41674;52.290;-1.474;2022-10-26T01:40:13;3;3;
55754;PMS5003;41674;52.290;-1.474;2022-10-26T01:42:41;5;4;
55754;PMS5003;41674;52.290;-1.474;2022-10-26T01:45:09;7;7;
55754;PMS5003;41674;52.290;-1.474;2022-10-26T01:47:39;3;3;
55754;PMS5003;41674;52.290;-1.474;2022-10-26T01:50:08;8;5;
55754;PMS5003;41674;52.290;-1.474;2022-10-26T01:52:38;5;5;
55754;PMS5003;41674;52.290;-1.474;2022-10-26T01:57:36;5;4;
55754;PMS5003;41674;52.290;-1.474;2022-10-26T02:00:07;4;4;
55754;PMS5003;41674;52.290;-1.474;2022-10-26T02:02:43;2;2;
55754;PMS5003;41674;52.290;-1.474;2022-10-26T02:07:37;7;6;
55754;PMS5003;41674;52.290;-1.474;2022-10-26T02:10:06;8;7;
55754;PMS5003;41674;52.290;-1.474;2022-10-26T02:12:36;3;3;
55754;PMS5003;41674;52.290;-1.474;2022-10-26T02:15:04;5;4;
55754;PMS5003;41674;52.290;-1.474;2022-10-26T02:17:33;5;5;
55754;PMS5003;41674;52.290;-1.474;2022-10-26T02:20:03;4;4;
55754;PMS5003;41674;52.290;-1.474;2022-10-26T02:22:33;5;5;
55754;PMS5003;41674;52.290;-1.474;2022-10-26T02:25:03;4;4;
55754;PMS5003;41674;52.290;-1.474;2022-10-26T02:27:31;5;5;
55754;PMS5003;41674;52.290;-1.474;2022-10-26T02:30:00;5;5;
55754;PMS5003;41674;52.290;-1.474;2022-10-26T02:32:31;8;5;
55754;PMS5003;41674;52.290;-1.474;2022-10-26T02:35:00;6;5;
55754;PMS5003;41674;52.290;-1.474;2022-10-26T02:37:29;5;3;
55754;PMS5003;41674;52.290;-1.474;2022-10-26T02:39:59;5;5;
55754;PMS5003;41674;52.290;-1.474;2022-10-26T02:42:28;5;5;
55754;PMS5003;41674;52.290;-1.474;2022-10-26T02:44:59;4;4;
55754;PMS5003;41674;52.290;-1.474;2022-10-26T02:47:27;4;4;
55754;PMS5003;41674;52.290;-1.474;2022-10-26T02:49:57;6;6;
55754;PMS5003;41674;52.290;-1.474;2022-10-26T02:52:27;7;5;
55754;PMS5003;41674;52.290;-1.474;2022-10-26T02:54:57;7;6;
55754;PMS5003;41674;52.290;-1.474;2022-10-26T02:57:26;5;5;
55754;PMS5003;41674;52.290;-1.474;2022-10-26T02:59:55;13;4;
55754;PMS5003;41674;52.290;-1.474;2022-10-26T03:02:24;6;5;
55754;PMS5003;41674;52.290;-1.474;2022-10-26T03:04:54;7;5;
55754;PMS5003;41674;52.290;-1.474;2022-10-26T03:07:24;9;5;
55754;PMS5003;41674;52.290;-1.474;2022-10-26T03:09:53;4;3;
55754;PMS5003;41674;52.290;-1.474;2022-10-26T03:12:23;7;6;
55754;PMS5003;41674;52.290;-1.474;2022-10-26T03:14:52;7;7;
55754;PMS5003;41674;52.290;-1.474;2022-10-26T03:17:22;5;5;
55754;PMS5003;41674;52.290;-1.474;2022-10-26T03:19:51;5;4;
55754;PMS5003;41674;52.290;-1.474;2022-10-26T03:22:20;7;6;
55754;PMS5003;41674;52.290;-1.474;2022-10-26T03:24:50;8;5;
55754;PMS5003;41674;52.290;-1.474;2022-10-26T03:27:20;8;8;
55754;PMS5003;41674;52.290;-1.474;2022-10-26T03:29:49;10;8;
55754;PMS5003;41674;52.290;-1.474;2022-10-26T03:32:19;7;5;
55754;PMS5003;41674;52.290;-1.474;2022-10-26T03:34:48;10;9;
55754;PMS5003;41674;52.290;-1.474;2022-10-26T03:37:18;8;4;
55754;PMS5003;41674;52.290;-1.474;2022-10-26T03:39:47;6;6;
55754;PMS5003;41674;52.290;-1.474;2022-10-26T03:42:17;7;7;
55754;PMS5003;41674;52.290;-1.474;2022-10-26T03:44:47;7;6;
55754;PMS5003;41674;52.290;-1.474;2022-10-26T03:47:16;8;5;
55754;PMS5003;41674;52.290;-1.474;2022-10-26T03:49:46;8;6;
55754;PMS5003;41674;52.290;-1.474;2022-10-26T03:52:15;7;6;
55754;PMS5003;41674;52.290;-1.474;2022-10-26T03:54:45;9;7;
55754;PMS5003;41674;52.290;-1.474;2022-10-26T03:57:14;11;7;
55754;PMS5003;41674;52.290;-1.474;2022-10-26T03:59:44;7;5;
55754;PMS5003;41674;52.290;-1.474;2022-10-26T04:02:13;6;5;
55754;PMS5003;41674;52.290;-1.474;2022-10-26T04:07:12;4;4;
55754;PMS5003;41674;52.290;-1.474;2022-10-26T04:09:42;7;7;
55754;PMS5003;41674;52.290;-1.474;2022-10-26T04:12:12;7;5;
55754;PMS5003;41674;52.290;-1.474;2022-10-26T04:14:41;6;5;
55754;PMS5003;41674;52.290;-1.474;2022-10-26T04:17:11;5;5;
55754;PMS5003;41674;52.290;-1.474;2022-10-26T04:19:40;7;4;
55754;PMS5003;41674;52.290;-1.474;2022-10-26T04:22:10;5;5;
55754;PMS5003;41674;52.290;-1.474;2022-10-26T04:24:39;6;4;
55754;PMS5003;41674;52.290;-1.474;2022-10-26T04:27:09;5;4;
55754;PMS5003;41674;52.290;-1.474;2022-10-26T04:29:38;8;6;
55754;PMS5003;41674;52.290;-1.474;2022-10-26T04:32:08;6;4;
55754;PMS5003;41674;52.290;-1.474;2022-10-26T04:34:38;4;4;
55754;PMS5003;41674;52.290;-1.474;2022-10-26T04:37:07;6;5;
55754;PMS5003;41674;52.290;-1.474;2022-10-26T04:39:37;6;5;
55754;PMS5003;41674;52.290;-1.474;2022-10-26T04:42:06;7;6;
55754;PMS5003;41674;52.290;-1.474;2022-10-26T04:44:36;6;5;
55754;PMS5003;41674;52.290;-1.474;2022-10-26T04:47:05;6;4;
55754;PMS5003;41674;52.290;-1.474;2022-10-26T04:49:35;5;5;
55754;PMS5003;41674;52.290;-1.474;2022-10-26T04:52:05;3;2;
55754;PMS5003;41674;52.290;-1.474;2022-10-26T04:54:34;3;3;
55754;PMS5003;41674;52.290;-1.474;2022-10-26T04:57:04;5;4;
55754;PMS5003;41674;52.290;-1.474;2022-10-26T04:59:33;4;3;
55754;PMS5003;41674;52.290;-1.474;2022-10-26T05:02:03;3;3;
55754;PMS5003;41674;52.290;-1.474;2022-10-26T05:04:32;4;4;
55754;PMS5003;41674;52.290;-1.474;2022-10-26T05:07:02;3;3;
55754;PMS5003;41674;52.290;-1.474;2022-10-26T05:09:31;4;4;
55754;PMS5003;41674;52.290;-1.474;2022-10-26T05:12:01;9;5;
55754;PMS5003;41674;52.290;-1.474;2022-10-26T05:14:30;5;5;
55754;PMS5003;41674;52.290;-1.474;2022-10-26T05:17:00;4;4;
55754;PMS5003;41674;52.290;-1.474;2022-10-26T05:19:29;6;5;
55754;PMS5003;41674;52.290;-1.474;2022-10-26T05:21:59;3;2;
55754;PMS5003;41674;52.290;-1.474;2022-10-26T05:24:28;5;3;
55754;PMS5003;41674;52.290;-1.474;2022-10-26T05:26:58;5;3;
55754;PMS5003;41674;52.290;-1.474;2022-10-26T05:29:27;2;2;
55754;PMS5003;41674;52.290;-1.474;2022-10-26T05:31:57;5;4;
55754;PMS5003;41674;52.290;-1.474;2022-10-26T05:34:27;4;3;
55754;PMS5003;41674;52.290;-1.474;2022-10-26T05:36:56;5;3;
55754;PMS5003;41674;52.290;-1.474;2022-10-26T05:39:26;6;4;
55754;PMS5003;41674;52.290;-1.474;2022-10-26T05:41:55;6;3;
55754;PMS5003;41674;52.290;-1.474;2022-10-26T05:44:25;3;3;
55754;PMS5003;41674;52.290;-1.474;2022-10-26T05:46:54;5;5;
55754;PMS5003;41674;52.290;-1.474;2022-10-26T05:49:24;4;2;
55754;PMS5003;41674;52.290;-1.474;2022-10-26T05:51:54;2;2;
55754;PMS5003;41674;52.290;-1.474;2022-10-26T05:54:23;3;2;
55754;PMS5003;41674;52.290;-1.474;2022-10-26T05:56:53;3;2;
55754;PMS5003;41674;52.290;-1.474;2022-10-26T05:59:22;3;2;
55754;PMS5003;41674;52.290;-1.474;2022-10-26T06:01:56;2;2;
55754;PMS5003;41674;52.290;-1.474;2022-10-26T06:04:25;2;2;
55754;PMS5003;41674;52.290;-1.474;2022-10-26T06:06:51;2;2;
55754;PMS5003;41674;52.290;-1.474;2022-10-26T06:09:21;1;1;
55754;PMS5003;41674;52.290;-1.474;2022-10-26T06:11:50;5;2;
55754;PMS5003;41674;52.290;-1.474;2022-10-26T06:14:20;3;2;
55754;PMS5003;41674;52.290;-1.474;2022-10-26T06:16:54;4;3;
55754;PMS5003;41674;52.290;-1.474;2022-10-26T06:19:22;2;2;
55754;PMS5003;41674;52.290;-1.474;2022-10-26T06:21:52;1;1;
55754;PMS5003;41674;52.290;-1.474;2022-10-26T06:24:19;5;2;
55754;PMS5003;41674;52.290;-1.474;2022-10-26T06:26:49;7;3;
55754;PMS5003;41674;52.290;-1.474;2022-10-26T06:29:19;0;0;
55754;PMS5003;41674;52.290;-1.474;2022-10-26T06:31:46;3;3;
55754;PMS5003;41674;52.290;-1.474;2022-10-26T06:34:17;3;1;
55754;PMS5003;41674;52.290;-1.474;2022-10-26T06:36:45;3;3;
55754;PMS5003;41674;52.290;-1.474;2022-10-26T06:39:15;1;1;
55754;PMS5003;41674;52.290;-1.474;2022-10-26T06:41:45;1;1;
55754;PMS5003;41674;52.290;-1.474;2022-10-26T06:44:18;4;4;
55754;PMS5003;41674;52.290;-1.474;2022-10-26T06:46:45;2;2;
55754;PMS5003;41674;52.290;-1.474;2022-10-26T06:49:15;3;2;
55754;PMS5003;41674;52.290;-1.474;2022-10-26T06:51:46;8;4;
55754;PMS5003;41674;52.290;-1.474;2022-10-26T06:54:14;1;1;
55754;PMS5003;41674;52.290;-1.474;2022-10-26T06:56:42;2;2;
55754;PMS5003;41674;52.290;-1.474;2022-10-26T06:59:13;1;1;
55754;PMS5003;41674;52.290;-1.474;2022-10-26T07:01:41;4;2;
55754;PMS5003;41674;52.290;-1.474;2022-10-26T07:04:10;5;2;
55754;PMS5003;41674;52.290;-1.474;2022-10-26T07:06:40;4;4;
55754;PMS5003;41674;52.290;-1.474;2022-10-26T07:09:10;2;1;
55754;PMS5003;41674;52.290;-1.474;2022-10-26T07:11:39;3;2;
55754;PMS5003;41674;52.290;-1.474;2022-10-26T07:14:09;0;0;
55754;PMS5003;41674;52.290;-1.474;2022-10-26T07:16:38;3;3;
55754;PMS5003;41674;52.290;-1.474;2022-10-26T07:19:08;2;2;
55754;PMS5003;41674;52.290;-1.474;2022-10-26T07:21:38;2;2;
55754;PMS5003;41674;52.290;-1.474;2022-10-26T07:24:07;4;2;
55754;PMS5003;41674;52.290;-1.474;2022-10-26T07:26:36;4;3;
55754;PMS5003;41674;52.290;-1.474;2022-10-26T07:29:06;5;3;
55754;PMS5003;41674;52.290;-1.474;2022-10-26T07:31:36;5;1;
55754;PMS5003;41674;52.290;-1.474;2022-10-26T07:34:05;2;2;
55754;PMS5003;41674;52.290;-1.474;2022-10-26T07:36:35;5;4;
55754;PMS5003;41674;52.290;-1.474;2022-10-26T07:39:04;5;3;
55754;PMS5003;41674;52.290;-1.474;2022-10-26T07:41:34;2;2;
55754;PMS5003;41674;52.290;-1.474;2022-10-26T07:44:03;4;3;
55754;PMS5003;41674;52.290;-1.474;2022-10-26T07:46:33;4;4;
55754;PMS5003;41674;52.290;-1.474;2022-10-26T07:49:02;5;4;
55754;PMS5003;41674;52.290;-1.474;2022-10-26T07:51:32;4;2;
55754;PMS5003;41674;52.290;-1.474;2022-10-26T07:54:02;4;4;
55754;PMS5003;41674;52.290;-1.474;2022-10-26T07:56:31;7;4;
55754;PMS5003;41674;52.290;-1.474;2022-10-26T07:59:01;3;3;
55754;PMS5003;41674;52.290;-1.474;2022-10-26T08:01:36;3;3;
55754;PMS5003;41674;52.290;-1.474;2022-10-26T08:04:00;2;2;
55754;PMS5003;41674;52.290;-1.474;2022-10-26T08:06:29;1;1;
55754;PMS5003;41674;52.290;-1.474;2022-10-26T08:08:59;2;2;
55754;PMS5003;41674;52.290;-1.474;2022-10-26T08:11:28;3;3;
55754;PMS5003;41674;52.290;-1.474;2022-10-26T08:13:58;2;2;
55754;PMS5003;41674;52.290;-1.474;2022-10-26T08:16:27;5;3;
55754;PMS5003;41674;52.290;-1.474;2022-10-26T08:18:57;5;3;
55754;PMS5003;41674;52.290;-1.474;2022-10-26T08:21:26;4;4;
55754;PMS5003;41674;52.290;-1.474;2022-10-26T08:23:56;3;2;
55754;PMS5003;41674;52.290;-1.474;2022-10-26T08:26:30;2;1;
55754;PMS5003;41674;52.290;-1.474;2022-10-26T08:29:00;3;2;
55754;PMS5003;41674;52.290;-1.474;2022-10-26T08:31:29;1;1;
55754;PMS5003;41674;52.290;-1.474;2022-10-26T08:33:54;0;0;
55754;PMS5003;41674;52.290;-1.474;2022-10-26T08:36:24;3;2;
55754;PMS5003;41674;52.290;-1.474;2022-10-26T08:38:53;0;0;
55754;PMS5003;41674;52.290;-1.474;2022-10-26T08:41:25;1;1;
55754;PMS5003;41674;52.290;-1.474;2022-10-26T08:43:53;2;2;
55754;PMS5003;41674;52.290;-1.474;2022-10-26T08:46:23;2;2;
55754;PMS5003;41674;52.290;-1.474;2022-10-26T08:48:52;4;2;
55754;PMS5003;41674;52.290;-1.474;2022-10-26T08:51:22;4;2;
55754;PMS5003;41674;52.290;-1.474;2022-10-26T08:53:51;3;3;
55754;PMS5003;41674;52.290;-1.474;2022-10-26T08:56:22;1;1;
55754;PMS5003;41674;52.290;-1.474;2022-10-26T08:58:51;2;2;
55754;PMS5003;41674;52.290;-1.474;2022-10-26T09:01:19;4;3;
55754;PMS5003;41674;52.290;-1.474;2022-10-26T09:03:49;4;3;
55754;PMS5003;41674;52.290;-1.474;2022-10-26T09:06:20;4;3;
55754;PMS5003;41674;52.290;-1.474;2022-10-26T09:08:51;4;3;
55754;PMS5003;41674;52.290;-1.474;2022-10-26T09:11:26;3;2;
55754;PMS5003;41674;52.290;-1.474;2022-10-26T09:13:50;3;2;
55754;PMS5003;41674;52.290;-1.474;2022-10-26T09:16:20;6;2;
55754;PMS5003;41674;52.290;-1.474;2022-10-26T09:18:48;4;2;
55754;PMS5003;41674;52.290;-1.474;2022-10-26T09:21:19;3;3;
55754;PMS5003;41674;52.290;-1.474;2022-10-26T09:23:50;6;4;
55754;PMS5003;41674;52.290;-1.474;2022-10-26T09:26:23;4;4;
55754;PMS5003;41674;52.290;-1.474;2022-10-26T09:28:44;4;4;
55754;PMS5003;41674;52.290;-1.474;2022-10-26T09:31:14;3;3;
55754;PMS5003;41674;52.290;-1.474;2022-10-26T09:33:43;4;3;
55754;PMS5003;41674;52.290;-1.474;2022-10-26T09:36:17;6;4;
55754;PMS5003;41674;52.290;-1.474;2022-10-26T09:38:43;2;1;
55754;PMS5003;41674;52.290;-1.474;2022-10-26T09:41:19;5;3;
55754;PMS5003;41674;52.290;-1.474;2022-10-26T09:43:42;7;3;
55754;PMS5003;41674;52.290;-1.474;2022-10-26T09:46:12;4;2;
55754;PMS5003;41674;52.290;-1.474;2022-10-26T09:48:41;2;1;
55754;PMS5003;41674;52.290;-1.474;2022-10-26T09:51:10;3;3;
55754;PMS5003;41674;52.290;-1.474;2022-10-26T09:53:40;3;2;
55754;PMS5003;41674;52.290;-1.474;2022-10-26T09:56:10;3;2;
55754;PMS5003;41674;52.290;-1.474;2022-10-26T09:58:40;6;4;
55754;PMS5003;41674;52.290;-1.474;2022-10-26T10:03:38;2;1;
55754;PMS5003;41674;52.290;-1.474;2022-10-26T10:08:37;2;1;
55754;PMS5003;41674;52.290;-1.474;2022-10-26T10:11:07;3;3;
55754;PMS5003;41674;52.290;-1.474;2022-10-26T10:13:37;3;3;
55754;PMS5003;41674;52.290;-1.474;2022-10-26T10:16:07;1;1;
55754;PMS5003;41674;52.290;-1.474;2022-10-26T10:18:35;1;1;
55754;PMS5003;41674;52.290;-1.474;2022-10-26T10:21:04;1;1;
55754;PMS5003;41674;52.290;-1.474;2022-10-26T10:23:34;1;1;
55754;PMS5003;41674;52.290;-1.474;2022-10-26T10:26:04;2;2;
55754;PMS5003;41674;52.290;-1.474;2022-10-26T10:28:33;2;2;
55754;PMS5003;41674;52.290;-1.474;2022-10-26T10:31:03;1;1;
55754;PMS5003;41674;52.290;-1.474;2022-10-26T10:33:33;1;1;
55754;PMS5003;41674;52.290;-1.474;2022-10-26T10:36:02;1;1;
55754;PMS5003;41674;52.290;-1.474;2022-10-26T10:38:35;1;1;
55754;PMS5003;41674;52.290;-1.474;2022-10-26T10:41:01;3;1;
55754;PMS5003;41674;52.290;-1.474;2022-10-26T10:43:30;4;1;
55754;PMS5003;41674;52.290;-1.474;2022-10-26T10:46:00;2;2;
55754;PMS5003;41674;52.290;-1.474;2022-10-26T10:48:29;0;0;
55754;PMS5003;41674;52.290;-1.474;2022-10-26T10:50:59;1;1;
55754;PMS5003;41674;52.290;-1.474;2022-10-26T10:53:32;1;1;
55754;PMS5003;41674;52.290;-1.474;2022-10-26T10:58:29;1;1;
55754;PMS5003;41674;52.290;-1.474;2022-10-26T11:00:57;2;1;
55754;PMS5003;41674;52.290;-1.474;2022-10-26T11:03:36;1;1;
55754;PMS5003;41674;52.290;-1.474;2022-10-26T11:05:59;1;1;
55754;PMS5003;41674;52.290;-1.474;2022-10-26T11:08:26;2;2;
55754;PMS5003;41674;52.290;-1.474;2022-10-26T11:10:57;5;2;
55754;PMS5003;41674;52.290;-1.474;2022-10-26T11:13:25;5;2;
55754;PMS5003;41674;52.290;-1.474;2022-10-26T11:15:55;1;1;
55754;PMS5003;41674;52.290;-1.474;2022-10-26T11:18:24;3;1;
55754;PMS5003;41674;52.290;-1.474;2022-10-26T11:20:54;3;3;
55754;PMS5003;41674;52.290;-1.474;2022-10-26T11:23:24;3;3;
55754;PMS5003;41674;52.290;-1.474;2022-10-26T11:25:52;0;0;
55754;PMS5003;41674;52.290;-1.474;2022-10-26T11:28:25;3;2;
55754;PMS5003;41674;52.290;-1.474;2022-10-26T11:30:53;1;1;
55754;PMS5003;41674;52.290;-1.474;2022-10-26T11:33:27;2;1;
55754;PMS5003;41674;52.290;-1.474;2022-10-26T11:35:51;4;2;
55754;PMS5003;41674;52.290;-1.474;2022-10-26T11:38:21;3;2;
55754;PMS5003;41674;52.290;-1.474;2022-10-26T11:40:50;3;2;
55754;PMS5003;41674;52.290;-1.474;2022-10-26T11:43:21;3;1;
55754;PMS5003;41674;52.290;-1.474;2022-10-26T11:45:56;2;2;
55754;PMS5003;41674;52.290;-1.474;2022-10-26T11:48:19;2;2;
55754;PMS5003;41674;52.290;-1.474;2022-10-26T11:50:49;4;2;
55754;PMS5003;41674;52.290;-1.474;2022-10-26T11:53:17;1;1;
55754;PMS5003;41674;52.290;-1.474;2022-10-26T11:55:47;1;1;
55754;PMS5003;41674;52.290;-1.474;2022-10-26T11:58:16;4;1;
55754;PMS5003;41674;52.290;-1.474;2022-10-26T12:00:46;2;2;
55754;PMS5003;41674;52.290;-1.474;2022-10-26T12:03:16;5;2;
55754;PMS5003;41674;52.290;-1.474;2022-10-26T12:05:45;2;1;
55754;PMS5003;41674;52.290;-1.474;2022-10-26T12:08:15;3;3;
55754;PMS5003;41674;52.290;-1.474;2022-10-26T12:10:51;3;2;
55754;PMS5003;41674;52.290;-1.474;2022-10-26T12:13:14;1;1;
55754;PMS5003;41674;52.290;-1.474;2022-10-26T12:15:45;0;0;
55754;PMS5003;41674;52.290;-1.474;2022-10-26T12:18:13;4;3;
55754;PMS5003;41674;52.290;-1.474;2022-10-26T12:20:51;1;1;
55754;PMS5003;41674;52.290;-1.474;2022-10-26T12:23:11;1;1;
55754;PMS5003;41674;52.290;-1.474;2022-10-26T12:25:41;3;2;
55754;PMS5003;41674;52.290;-1.474;2022-10-26T12:30:39;2;1;
55754;PMS5003;41674;52.290;-1.474;2022-10-26T12:35:39;2;1;
55754;PMS5003;41674;52.290;-1.474;2022-10-26T12:40:40;0;0;
55754;PMS5003;41674;52.290;-1.474;2022-10-26T12:45:37;3;2;
55754;PMS5003;41674;52.290;-1.474;2022-10-26T12:48:19;3;2;
55754;PMS5003;41674;52.290;-1.474;2022-10-26T12:50:36;3;3;
55754;PMS5003;41674;52.290;-1.474;2022-10-26T12:53:05;3;2;
55754;PMS5003;41674;52.290;-1.474;2022-10-26T12:55:45;2;2;
55754;PMS5003;41674;52.290;-1.474;2022-10-26T13:00:34;2;1;
55754;PMS5003;41674;52.290;-1.474;2022-10-26T13:03:07;1;1;
55754;PMS5003;41674;52.290;-1.474;2022-10-26T13:08:03;5;3;
55754;PMS5003;41674;52.290;-1.474;2022-10-26T13:10:32;3;2;
55754;PMS5003;41674;52.290;-1.474;2022-10-26T13:13:02;3;3;
55754;PMS5003;41674;52.290;-1.474;2022-10-26T13:15:32;2;2;
55754;PMS5003;41674;52.290;-1.474;2022-10-26T13:18:01;2;2;
55754;PMS5003;41674;52.290;-1.474;2022-10-26T13:20:30;4;2;
55754;PMS5003;41674;52.290;-1.474;2022-10-26T13:23:00;2;2;
55754;PMS5003;41674;52.290;-1.474;2022-10-26T13:25:29;2;1;
55754;PMS5003;41674;52.290;-1.474;2022-10-26T13:28:00;3;1;
55754;PMS5003;41674;52.290;-1.474;2022-10-26T13:32:57;2;2;
55754;PMS5003;41674;52.290;-1.474;2022-10-26T13:35:27;3;3;
55754;PMS5003;41674;52.290;-1.474;2022-10-26T13:37:56;0;0;
55754;PMS5003;41674;52.290;-1.474;2022-10-26T13:40:26;4;4;
55754;PMS5003;41674;52.290;-1.474;2022-10-26T13:42:55;4;3;
55754;PMS5003;41674;52.290;-1.474;2022-10-26T13:45:25;4;1;
55754;PMS5003;41674;52.290;-1.474;2022-10-26T13:47:55;2;2;
55754;PMS5003;41674;52.290;-1.474;2022-10-26T13:50:24;3;3;
55754;PMS5003;41674;52.290;-1.474;2022-10-26T13:52:53;1;1;
55754;PMS5003;41674;52.290;-1.474;2022-10-26T13:55:23;2;2;
55754;PMS5003;41674;52.290;-1.474;2022-10-26T13:57:59;3;2;
55754;PMS5003;41674;52.290;-1.474;2022-10-26T14:00:22;3;2;
55754;PMS5003;41674;52.290;-1.474;2022-10-26T14:02:51;2;2;
55754;PMS5003;41674;52.290;-1.474;2022-10-26T14:05:20;3;3;
55754;PMS5003;41674;52.290;-1.474;2022-10-26T14:07:51;4;3;
55754;PMS5003;41674;52.290;-1.474;2022-10-26T14:10:22;2;2;
55754;PMS5003;41674;52.290;-1.474;2022-10-26T14:12:49;4;2;
55754;PMS5003;41674;52.290;-1.474;2022-10-26T14:15:21;1;1;
55754;PMS5003;41674;52.290;-1.474;2022-10-26T14:17:48;1;1;
55754;PMS5003;41674;52.290;-1.474;2022-10-26T14:20:18;2;1;
55754;PMS5003;41674;52.290;-1.474;2022-10-26T14:22:47;2;2;
55754;PMS5003;41674;52.290;-1.474;2022-10-26T14:25:17;2;2;
55754;PMS5003;41674;52.290;-1.474;2022-10-26T14:27:46;4;3;
55754;PMS5003;41674;52.290;-1.474;2022-10-26T14:30:21;2;1;
55754;PMS5003;41674;52.290;-1.474;2022-10-26T14:32:45;3;2;
55754;PMS5003;41674;52.290;-1.474;2022-10-26T14:35:14;2;1;
55754;PMS5003;41674;52.290;-1.474;2022-10-26T14:37:44;3;2;
55754;PMS5003;41674;52.290;-1.474;2022-10-26T14:40:19;5;3;
55754;PMS5003;41674;52.290;-1.474;2022-10-26T14:42:43;6;3;
55754;PMS5003;41674;52.290;-1.474;2022-10-26T14:45:19;3;3;
55754;PMS5003;41674;52.290;-1.474;2022-10-26T14:47:42;3;3;
55754;PMS5003;41674;52.290;-1.474;2022-10-26T14:50:17;3;2;
55754;PMS5003;41674;52.290;-1.474;2022-10-26T14:52:41;4;3;
55754;PMS5003;41674;52.290;-1.474;2022-10-26T14:55:12;5;4;
55754;PMS5003;41674;52.290;-1.474;2022-10-26T14:57:40;4;3;
55754;PMS5003;41674;52.290;-1.474;2022-10-26T15:00:12;3;3;
55754;PMS5003;41674;52.290;-1.474;2022-10-26T15:02:39;3;2;
55754;PMS5003;41674;52.290;-1.474;2022-10-26T15:05:17;6;4;
55754;PMS5003;41674;52.290;-1.474;2022-10-26T15:07:38;3;3;
55754;PMS5003;41674;52.290;-1.474;2022-10-26T15:12:37;1;1;
55754;PMS5003;41674;52.290;-1.474;2022-10-26T15:15:09;2;2;
55754;PMS5003;41674;52.290;-1.474;2022-10-26T15:17:36;2;2;
55754;PMS5003;41674;52.290;-1.474;2022-10-26T15:20:10;5;4;
55754;PMS5003;41674;52.290;-1.474;2022-10-26T15:22:35;4;2;
55754;PMS5003;41674;52.290;-1.474;2022-10-26T15:25:05;3;1;
55754;PMS5003;41674;52.290;-1.474;2022-10-26T15:27:34;4;3;
55754;PMS5003;41674;52.290;-1.474;2022-10-26T15:30:10;2;2;
55754;PMS5003;41674;52.290;-1.474;2022-10-26T15:32:33;4;4;
55754;PMS5003;41674;52.290;-1.474;2022-10-26T15:35:10;3;2;
55754;PMS5003;41674;52.290;-1.474;2022-10-26T15:37:32;3;3;
55754;PMS5003;41674;52.290;-1.474;2022-10-26T15:40:01;4;4;
55754;PMS5003;41674;52.290;-1.474;2022-10-26T15:42:31;8;4;
55754;PMS5003;41674;52.290;-1.474;2022-10-26T15:45:00;2;2;
55754;PMS5003;41674;52.290;-1.474;2022-10-26T15:47:35;9;5;
55754;PMS5003;41674;52.290;-1.474;2022-10-26T15:50:00;3;2;
55754;PMS5003;41674;52.290;-1.474;2022-10-26T15:52:30;2;2;
55754;PMS5003;41674;52.290;-1.474;2022-10-26T15:54:58;4;4;
55754;PMS5003;41674;52.290;-1.474;2022-10-26T15:57:28;8;2;
55754;PMS5003;41674;52.290;-1.474;2022-10-26T15:59:58;7;5;
55754;PMS5003;41674;52.290;-1.474;2022-10-26T16:02:27;3;2;
55754;PMS5003;41674;52.290;-1.474;2022-10-26T16:04:57;5;3;
55754;PMS5003;41674;52.290;-1.474;2022-10-26T16:07:26;4;4;
55754;PMS5003;41674;52.290;-1.474;2022-10-26T16:09:56;6;4;
55754;PMS5003;41674;52.290;-1.474;2022-10-26T16:12:25;4;2;
55754;PMS5003;41674;52.290;-1.474;2022-10-26T16:14:55;3;3;
55754;PMS5003;41674;52.290;-1.474;2022-10-26T16:17:24;8;6;
55754;PMS5003;41674;52.290;-1.474;2022-10-26T16:19:54;5;3;
55754;PMS5003;41674;52.290;-1.474;2022-10-26T16:22:23;4;4;
55754;PMS5003;41674;52.290;-1.474;2022-10-26T16:24:54;9;6;
55754;PMS5003;41674;52.290;-1.474;2022-10-26T16:27:23;6;5;
55754;PMS5003;41674;52.290;-1.474;2022-10-26T16:29:52;7;3;
55754;PMS5003;41674;52.290;-1.474;2022-10-26T16:32:22;4;3;
55754;PMS5003;41674;52.290;-1.474;2022-10-26T16:34:51;5;4;
55754;PMS5003;41674;52.290;-1.474;2022-10-26T16:37:21;5;4;
55754;PMS5003;41674;52.290;-1.474;2022-10-26T16:39:50;5;5;
55754;PMS5003;41674;52.290;-1.474;2022-10-26T16:42:20;7;6;
55754;PMS5003;41674;52.290;-1.474;2022-10-26T16:44:49;6;5;
55754;PMS5003;41674;52.290;-1.474;2022-10-26T16:47:19;3;3;
55754;PMS5003;41674;52.290;-1.474;2022-10-26T16:49:49;5;3;
55754;PMS5003;41674;52.290;-1.474;2022-10-26T16:52:18;7;4;
55754;PMS5003;41674;52.290;-1.474;2022-10-26T16:54:48;5;4;
55754;PMS5003;41674;52.290;-1.474;2022-10-26T16:57:17;6;4;
55754;PMS5003;41674;52.290;-1.474;2022-10-26T16:59:47;6;5;
55754;PMS5003;41674;52.290;-1.474;2022-10-26T17:02:17;5;4;
55754;PMS5003;41674;52.290;-1.474;2022-10-26T17:04:47;6;5;
55754;PMS5003;41674;52.290;-1.474;2022-10-26T17:07:15;7;5;
55754;PMS5003;41674;52.290;-1.474;2022-10-26T17:09:45;4;4;
55754;PMS5003;41674;52.290;-1.474;2022-10-26T17:14:43;7;6;
55754;PMS5003;41674;52.290;-1.474;2022-10-26T17:17:13;10;6;
55754;PMS5003;41674;52.290;-1.474;2022-10-26T17:19:42;4;4;
55754;PMS5003;41674;52.290;-1.474;2022-10-26T17:22:12;7;6;
55754;PMS5003;41674;52.290;-1.474;2022-10-26T17:24:41;7;5;